Michelle Sloan — WDH8832 — position and weather

sailwx.info

Track history (hours):
 
Tides and Currents Weather Stations Pressure Air Temp Water Temp Dewpoint Dewpoint Depression Visibility Wind Speed Wind Dir Waves Ship Positions

Michelle Sloan

Owner: Harley Marine Services, Inc., Seattle, WA. More information available from US FCC via Universal Licensing System and Coast Guard Vessel Documentation Center.

Last reported at 2017-Nov-19 20:06 UTC. Time now 2017-Nov-20 21:22 UTC.
Position N 33°44' W 118°16'.

Length 24 m; draft 4.9 m.

Type: Towing. MMSI: 367661930.

Date/timePositionNaut miles runAvg speedWind from/ knotsBaromVisibWave heightAir tempDewpointWater temp
2017-Nov-19 20:06N 33°44' W 118°16'1 6.9
2017-Nov-19 20:00N 33°43' W 118°16'2 0.2
2017-Nov-19 11:16N 33°45' W 118°16'1 3.4
2017-Nov-19 10:52N 33°44' W 118°16'0 0.0
2017-Nov-19 06:46N 33°44' W 118°16'2 0.4
2017-Nov-19 01:57N 33°45' W 118°17'0 0.6
2017-Nov-19 01:19N 33°45' W 118°16'1 2.0
2017-Nov-19 00:58N 33°44' W 118°17'1 2.6
2017-Nov-19 00:30N 33°43' W 118°16'1 1.4
2017-Nov-19 00:00N 33°44' W 118°15'0 0.2
2017-Nov-18 23:30N 33°44' W 118°15'0 0.2
2017-Nov-18 23:00N 33°44' W 118°15'0 0.3
2017-Nov-18 21:48N 33°44' W 118°16'5 6.0
2017-Nov-18 21:03N 33°44' W 118°10'6 0.1
2017-Nov-16 19:03N 33°38' W 118°10'7 1.7
2017-Nov-16 14:40N 33°44' W 118°16'1 0.8
2017-Nov-16 13:25N 33°45' W 118°17'1 0.1
2017-Nov-15 16:01N 33°44' W 118°16'0 4.3
2017-Nov-15 15:56N 33°44' W 118°16'0 0.2
2017-Nov-15 14:06N 33°44' W 118°16'0 0.7
2017-Nov-15 13:53N 33°44' W 118°16'1 1.5
2017-Nov-15 13:08N 33°45' W 118°17'1 7.4
2017-Nov-15 13:00N 33°44' W 118°16'3 6.4
2017-Nov-15 12:30N 33°44' W 118°13'1 1.4
2017-Nov-15 12:00N 33°45' W 118°12'1 0.1
2017-Nov-14 15:16N 33°43' W 118°11'4 1.0
2017-Nov-14 11:15N 33°44' W 118°16'0 0.0
2017-Nov-14 10:59N 33°44' W 118°16'3 0.4
2017-Nov-14 03:54N 33°46' W 118°13'0 0.7
2017-Nov-14 03:29N 33°46' W 118°13'3 1.4
2017-Nov-14 01:08N 33°44' W 118°16'0 0.0
2017-Nov-14 00:58N 33°44' W 118°16'1 1.2
2017-Nov-14 00:30N 33°43' W 118°16'3 5.2
2017-Nov-14 00:00N 33°42' W 118°13'1 2.4
2017-Nov-13 23:30N 33°41' W 118°13'2 3.1
2017-Nov-13 23:00N 33°39' W 118°14'1 1.9
2017-Nov-13 22:18N 33°40' W 118°15'  
Track history (hours):
 
Tides and Currents Weather Stations Pressure Air Temp Water Temp Dewpoint Dewpoint Depression Visibility Wind Speed Wind Dir Waves Ship Positions

Michelle Sloan

Owner: Harley Marine Services, Inc., Seattle, WA. More information available from US FCC via Universal Licensing System and Coast Guard Vessel Documentation Center.

Last reported at 2017-Nov-19 20:06 UTC. Time now 2017-Nov-20 21:22 UTC.
Position N 33°44' W 118°16'.

Length 24 m; draft 4.9 m.

Type: Towing. MMSI: 367661930.

Date/timePositionNaut miles runAvg speedWind from/ knotsBaromVisibWave heightAir tempDewpointWater temp
2017-Nov-19 20:06N 33°44' W 118°16'1 6.9
2017-Nov-19 20:00N 33°43' W 118°16'2 0.2
2017-Nov-19 11:16N 33°45' W 118°16'1 3.4
2017-Nov-19 10:52N 33°44' W 118°16'0 0.0
2017-Nov-19 06:46N 33°44' W 118°16'2 0.4
2017-Nov-19 01:57N 33°45' W 118°17'0 0.6
2017-Nov-19 01:19N 33°45' W 118°16'1 2.0
2017-Nov-19 00:58N 33°44' W 118°17'1 2.6
2017-Nov-19 00:30N 33°43' W 118°16'1 1.4
2017-Nov-19 00:00N 33°44' W 118°15'0 0.2
2017-Nov-18 23:30N 33°44' W 118°15'0 0.2
2017-Nov-18 23:00N 33°44' W 118°15'0 0.3
2017-Nov-18 21:48N 33°44' W 118°16'5 6.0
2017-Nov-18 21:03N 33°44' W 118°10'6 0.1
2017-Nov-16 19:03N 33°38' W 118°10'7 1.7
2017-Nov-16 14:40N 33°44' W 118°16'1 0.8
2017-Nov-16 13:25N 33°45' W 118°17'1 0.1
2017-Nov-15 16:01N 33°44' W 118°16'0 4.3
2017-Nov-15 15:56N 33°44' W 118°16'0 0.2
2017-Nov-15 14:06N 33°44' W 118°16'0 0.7
2017-Nov-15 13:53N 33°44' W 118°16'1 1.5
2017-Nov-15 13:08N 33°45' W 118°17'1 7.4
2017-Nov-15 13:00N 33°44' W 118°16'3 6.4
2017-Nov-15 12:30N 33°44' W 118°13'1 1.4
2017-Nov-15 12:00N 33°45' W 118°12'1 0.1
2017-Nov-14 15:16N 33°43' W 118°11'4 1.0
2017-Nov-14 11:15N 33°44' W 118°16'0 0.0
2017-Nov-14 10:59N 33°44' W 118°16'3 0.4
2017-Nov-14 03:54N 33°46' W 118°13'0 0.7
2017-Nov-14 03:29N 33°46' W 118°13'3 1.4
2017-Nov-14 01:08N 33°44' W 118°16'0 0.0
2017-Nov-14 00:58N 33°44' W 118°16'1 1.2
2017-Nov-14 00:30N 33°43' W 118°16'3 5.2
2017-Nov-14 00:00N 33°42' W 118°13'1 2.4
2017-Nov-13 23:30N 33°41' W 118°13'2 3.1
2017-Nov-13 23:00N 33°39' W 118°14'1 1.9
2017-Nov-13 22:18N 33°40' W 118°15'  

Dump ship's entire track history